createdAt,value
2019-04-01T00:03:52.324Z,85.28
2019-04-01T00:10:20.371Z,85.09
2019-04-01T00:16:59.993Z,85.46
2019-04-01T00:23:30.194Z,85.45
2019-04-01T00:30:00.716Z,86.01
2019-04-01T00:36:04.440Z,86.48
2019-04-01T00:46:05.615Z,86.44
2019-04-01T00:52:44.562Z,86.41
2019-04-01T00:59:10.139Z,86.75
2019-04-01T01:05:37.244Z,86.74
2019-04-01T01:12:14.946Z,87.15
2019-04-01T01:18:41.983Z,87.23
2019-04-01T01:25:07.801Z,87.37
2019-04-01T01:31:35.364Z,87.50
2019-04-01T01:38:13.583Z,87.44
2019-04-01T01:48:17.269Z,87.83
2019-04-01T01:54:45.406Z,87.54
2019-04-01T02:01:09.208Z,87.58
2019-04-01T02:07:46.133Z,88.09
2019-04-01T02:14:18.699Z,88.24
2019-04-01T02:20:44.857Z,88.32
2019-04-01T02:27:23.814Z,88.58
2019-04-01T02:33:52.619Z,88.28
2019-04-01T02:44:27.957Z,88.81
2019-04-01T02:50:52.540Z,89.50
2019-04-01T02:57:31.496Z,89.01
2019-04-01T03:04:00.223Z,89.37
2019-04-01T03:10:31.443Z,89.31
2019-04-01T03:17:05.319Z,89.40
2019-04-01T03:23:46.029Z,89.42
2019-04-01T03:30:17.161Z,89.55
2019-04-01T03:36:14.382Z,89.36
2019-04-01T03:46:24.738Z,88.83
2019-04-01T03:53:22.497Z,89.27
2019-04-01T03:59:52.506Z,89.22
2019-04-01T04:06:38.790Z,89.55
2019-04-01T04:13:25.788Z,89.88
2019-04-01T04:20:02.714Z,89.75
2019-04-01T04:26:32.362Z,89.54
2019-04-01T04:33:21.641Z,89.33
2019-04-01T04:39:57.244Z,89.43
2019-04-01T04:50:05.560Z,89.64
2019-04-01T04:56:30.127Z,89.69
2019-04-01T05:03:09.079Z,90.08
2019-04-01T05:09:39.029Z,90.68
2019-04-01T05:16:13.096Z,90.58
2019-04-01T05:22:37.692Z,91.36
2019-04-01T05:29:14.821Z,91.35
2019-04-01T05:35:13.004Z,91.65
2019-04-01T05:41:41.220Z,91.76
2019-04-01T05:51:46.209Z,92.57
2019-04-01T05:58:20.756Z,93.00
2019-04-01T06:04:50.974Z,93.20
2019-04-01T06:11:16.551Z,93.70
2019-04-01T06:17:42.401Z,94.08
2019-04-01T06:24:19.310Z,93.93
2019-04-01T06:30:45.161Z,93.73
2019-04-01T06:36:38.853Z,94.14
2019-04-01T06:43:06.139Z,94.66
2019-04-01T06:53:20.548Z,94.64
2019-04-01T07:00:02.918Z,93.78
2019-04-01T07:06:28.594Z,92.54
2019-04-01T07:12:56.435Z,91.32
2019-04-01T07:19:35.384Z,90.10
2019-04-01T07:25:24.850Z,89.06
2019-04-01T07:31:52.684Z,88.16
2019-04-01T07:38:22.315Z,87.14
2019-04-01T07:45:04.522Z,87.24
2019-04-01T07:55:06.267Z,86.18
2019-04-01T08:01:37.026Z,85.71
2019-04-01T08:08:01.154Z,85.25
2019-04-01T08:14:49.721Z,84.67
2019-04-01T08:21:14.651Z,84.51
2019-04-01T08:27:40.833Z,84.16
2019-04-01T08:34:06.655Z,84.08
2019-04-01T08:40:43.580Z,83.78
2019-04-01T08:47:07.383Z,83.29
2019-04-01T08:57:26.789Z,82.79
2019-04-01T09:03:53.349Z,82.66
2019-04-01T09:10:32.294Z,82.29
2019-04-01T09:16:59.904Z,82.71
2019-04-01T09:23:25.756Z,81.51
2019-04-01T09:30:05.916Z,81.25
2019-04-01T09:36:31.733Z,80.89
2019-04-01T09:42:59.598Z,80.83
2019-04-01T09:49:27.424Z,80.06
2019-04-01T09:58:54.899Z,79.39
2019-04-01T10:05:34.668Z,79.11
2019-04-01T10:11:23.243Z,78.28
2019-04-01T10:17:52.780Z,78.41
2019-04-01T10:24:18.125Z,77.83
2019-04-01T10:30:57.075Z,77.42
2019-04-01T10:37:24.671Z,76.95
2019-04-01T10:43:50.513Z,76.76
2019-04-01T10:50:29.477Z,76.19
2019-04-01T11:00:45.826Z,74.93
2019-04-01T11:07:17.687Z,74.65
2019-04-01T11:13:06.911Z,74.25
2019-04-01T11:19:30.714Z,73.29
2019-04-01T11:26:11.092Z,72.74
2019-04-01T11:32:40.770Z,72.73
2019-04-01T11:39:10.399Z,73.06
2019-04-01T11:45:49.366Z,71.81
2019-04-01T11:52:15.549Z,71.27
2019-04-01T12:01:49.866Z,70.72
2019-04-01T12:08:16.531Z,70.42
2019-04-01T12:14:11.261Z,70.17
2019-04-01T12:20:42.026Z,70.02
2019-04-01T12:27:19.211Z,69.43
2019-04-01T12:33:47.745Z,68.17
2019-04-01T12:40:15.906Z,68.07
2019-04-01T12:46:56.875Z,67.87
2019-04-01T12:53:22.684Z,67.02
2019-04-01T13:03:31.716Z,66.02
2019-04-01T13:09:57.331Z,66.08
2019-04-01T13:16:36.291Z,65.20
2019-04-01T13:23:02.959Z,62.64
2019-04-01T13:29:34.253Z,64.06
2019-04-01T13:36:00.807Z,61.62
2019-04-01T13:42:39.761Z,62.25
2019-04-01T13:49:06.428Z,60.93
2019-04-01T13:55:32.615Z,61.02
2019-04-01T14:01:58.440Z,59.45
2019-04-01T14:08:26.025Z,54.81
2019-04-01T14:14:51.873Z,52.70
2019-04-01T14:21:20.721Z,53.00
2019-04-01T14:27:57.874Z,53.02
2019-04-01T14:34:23.862Z,53.49
2019-04-01T14:40:53.556Z,53.92
2019-04-01T14:47:30.486Z,53.66
2019-04-01T14:53:56.305Z,53.59
2019-04-01T15:00:29.201Z,53.24
2019-04-01T15:06:20.675Z,52.50
2019-04-01T15:13:05.559Z,52.92
2019-04-01T15:19:29.486Z,52.88
2019-04-01T15:25:57.114Z,52.24
2019-04-01T15:32:36.278Z,52.80
2019-04-01T15:39:02.740Z,52.84
2019-04-01T15:45:35.449Z,52.13
2019-04-01T15:52:00.583Z,52.56
2019-04-01T15:58:39.544Z,52.32
2019-04-01T16:08:16.467Z,52.12
2019-04-01T16:14:40.245Z,52.51
2019-04-01T16:21:07.106Z,52.26
2019-04-01T16:27:49.083Z,51.99
2019-04-01T16:34:15.928Z,52.87
2019-04-01T16:40:43.542Z,53.47
2019-04-01T16:47:14.430Z,53.63
2019-04-01T16:53:55.981Z,53.94
2019-04-01T17:00:21.415Z,54.76
2019-04-01T17:09:59.947Z,54.59
2019-04-01T17:16:26.604Z,55.56
2019-04-01T17:23:06.019Z,56.70
2019-04-01T17:29:32.018Z,56.20
2019-04-01T17:35:59.586Z,57.30
2019-04-01T17:42:25.160Z,57.82
2019-04-01T17:49:06.164Z,59.30
2019-04-01T17:55:33.660Z,60.86
2019-04-01T18:02:04.831Z,62.19
2019-04-01T18:08:07.678Z,63.63
2019-04-01T18:14:33.497Z,65.00
2019-04-01T18:20:59.315Z,66.07
2019-04-01T18:27:25.140Z,66.68
2019-04-01T18:34:02.066Z,66.61
2019-04-01T18:40:32.434Z,67.96
2019-04-01T18:46:53.489Z,68.77
2019-04-01T18:53:20.532Z,69.15
2019-04-01T18:59:59.488Z,69.57
2019-04-01T19:06:27.014Z,70.40
2019-04-01T19:13:05.710Z,71.38
2019-04-01T19:19:40.259Z,71.97
2019-04-01T19:26:09.894Z,72.41
2019-04-01T19:32:34.843Z,73.10
2019-04-01T19:39:17.834Z,74.04
2019-04-01T19:45:44.301Z,74.91
2019-04-01T19:52:12.503Z,74.85
2019-04-01T19:58:38.323Z,75.24
2019-04-01T20:05:17.273Z,75.75
2019-04-01T20:15:18.221Z,77.23
2019-04-01T20:21:47.340Z,77.44
2019-04-01T20:28:38.143Z,78.22
2019-04-01T20:35:23.273Z,78.61
2019-04-01T20:41:49.987Z,79.07
2019-04-01T20:48:15.802Z,79.56
2019-04-01T20:54:56.773Z,80.55
2019-04-01T21:01:24.623Z,80.85
2019-04-01T21:07:51.443Z,81.11
2019-04-01T21:18:13.256Z,81.57
2019-04-01T21:24:50.532Z,83.07
2019-04-01T21:31:17.307Z,82.82
2019-04-01T21:37:45.955Z,83.63
2019-04-01T21:44:03.967Z,83.21
2019-04-01T21:50:48.974Z,84.32
2019-04-01T21:57:24.816Z,84.68
2019-04-01T22:04:05.873Z,84.49
2019-04-01T22:10:56.648Z,85.13
2019-04-01T22:16:43.993Z,85.20
2019-04-01T22:23:18.038Z,85.57
2019-04-01T22:29:50.848Z,85.38
2019-04-01T22:36:40.411Z,86.29
2019-04-01T22:43:15.143Z,86.15
2019-04-01T22:49:41.585Z,86.42
2019-04-01T22:56:26.258Z,87.47
2019-04-01T23:03:00.879Z,87.08
2019-04-01T23:09:26.571Z,87.16
2019-04-01T23:16:04.649Z,87.14
2019-04-01T23:22:30.974Z,87.61
2019-04-01T23:28:58.303Z,88.09
2019-04-01T23:35:23.899Z,87.91
2019-04-01T23:42:10.168Z,88.41
2019-04-01T23:48:37.980Z,88.27
2019-04-01T23:55:06.438Z,88.76
